Time;durP1;ratioP1;P1;durP2;ratioP2;P2;SDS_P1;SDS_P2;PMS_P1;PMS_P2;Temp;Humidity;BMP_temperature;BMP_pressure;BME280_temperature;BME280_humidity;BME280_pressure;Samples;Min_cycle;Max_cycle;Signal;HPM_P1;HPM_P2
2023/11/16 00:00:56;;;;;;;15.40;5.37;;;8.90;99.90;;;;;;4963338;28;20244;-89
2023/11/16 00:03:23;;;;;;;12.07;4.70;;;8.90;99.90;;;;;;4962366;28;20212;-88
2023/11/16 00:05:49;;;;;;;13.17;4.47;;;8.80;99.90;;;;;;4962121;28;20195;-88
2023/11/16 00:08:16;;;;;;;17.20;5.60;;;8.70;99.90;;;;;;4962386;28;20184;-88
2023/11/16 00:10:42;;;;;;;13.77;4.70;;;8.80;99.90;;;;;;4975367;28;20172;-87
2023/11/16 00:13:09;;;;;;;14.90;4.90;;;8.80;99.90;;;;;;4999258;28;20196;-86
2023/11/16 00:15:38;;;;;;;17.60;4.70;;;8.80;99.90;;;;;;4979331;28;20185;-86
2023/11/16 00:18:04;;;;;;;15.87;5.47;;;8.70;99.90;;;;;;4962337;28;20192;-87
2023/11/16 00:20:32;;;;;;;14.83;4.70;;;8.80;99.90;;;;;;4962233;28;20172;-85
2023/11/16 00:22:58;;;;;;;11.73;4.70;;;8.70;99.90;;;;;;4962715;28;20295;-87
2023/11/16 00:25:24;;;;;;;17.03;5.07;;;8.70;99.90;;;;;;4961529;28;20188;-88
2023/11/16 00:27:50;;;;;;;11.83;4.20;;;8.70;99.90;;;;;;4962921;28;20179;-86
2023/11/16 00:30:19;;;;;;;14.97;5.10;;;8.90;99.90;;;;;;4946409;29;20176;-89
2023/11/16 00:32:45;;;;;;;11.90;4.90;;;8.90;99.90;;;;;;4940513;29;20278;-88
2023/11/16 00:35:29;;;;;;;14.47;4.53;;;8.90;99.90;;;;;;4940162;29;20322;-88
2023/11/16 00:37:58;;;;;;;11.53;4.57;;;9.00;99.90;;;;;;4942185;29;20283;-88
2023/11/16 00:40:24;;;;;;;12.43;4.43;;;9.00;99.90;;;;;;4941519;29;20195;-87
2023/11/16 00:42:51;;;;;;;14.40;5.10;;;9.00;99.90;;;;;;4941920;29;20192;-87
2023/11/16 00:45:16;;;;;;;15.17;4.30;;;8.90;99.90;;;;;;4943095;29;20188;-87
2023/11/16 00:47:43;;;;;;;9.87;4.37;;;8.90;99.90;;;;;;4980188;28;20180;-87
2023/11/16 00:50:09;;;;;;;16.87;4.77;;;8.90;99.90;;;;;;4962929;28;20176;-87
2023/11/16 00:52:35;;;;;;;13.63;4.93;;;9.00;99.90;;;;;;4962831;28;20181;-87
2023/11/16 00:55:04;;;;;;;15.13;4.70;;;9.20;99.90;;;;;;4960394;28;20228;-90
2023/11/16 00:57:31;;;;;;;12.60;4.73;;;9.00;99.90;;;;;;4941722;29;20280;-89
2023/11/16 00:59:56;;;;;;;14.03;5.10;;;9.00;99.90;;;;;;4959275;28;20211;-89
2023/11/16 01:02:25;;;;;;;13.00;4.73;;;8.90;99.90;;;;;;4941335;29;20192;-89
2023/11/16 01:04:50;;;;;;;8.97;4.30;;;8.90;99.90;;;;;;4941399;29;20204;-88
2023/11/16 01:07:16;;;;;;;12.97;4.03;;;8.80;99.90;;;;;;4941140;29;20652;-89
2023/11/16 01:09:42;;;;;;;14.53;4.73;;;8.80;99.90;;;;;;4940417;29;20242;-89
2023/11/16 01:12:15;;;;;;;9.47;4.50;;;8.70;99.90;;;;;;4938924;29;20222;-89
2023/11/16 01:14:42;;;;;;;16.17;4.97;;;8.70;99.90;;;;;;4939146;29;20288;-89
2023/11/16 01:17:12;;;;;;;11.00;4.10;;;8.80;99.90;;;;;;4939935;29;20880;-88
2023/11/16 01:19:45;;;;;;;14.53;4.77;;;8.70;99.90;;;;;;4940934;29;20184;-89
2023/11/16 01:22:16;;;;;;;12.43;4.30;;;8.70;99.90;;;;;;4939018;29;20211;-89
2023/11/16 01:24:44;;;;;;;11.33;3.97;;;8.60;99.90;;;;;;4942504;28;20715;-89
2023/11/16 01:27:25;;;;;;;11.13;4.20;;;8.70;99.90;;;;;;4985748;28;20239;-88
2023/11/16 01:29:51;;;;;;;11.77;4.47;;;8.60;99.90;;;;;;4931876;29;20219;-89
2023/11/16 01:32:17;;;;;;;11.03;4.03;;;8.70;99.90;;;;;;4936747;29;20208;-88
2023/11/16 01:34:45;;;;;;;10.33;4.57;;;8.80;99.90;;;;;;4938706;29;20307;-88
2023/11/16 01:37:13;;;;;;;14.90;4.70;;;8.80;99.90;;;;;;4938569;29;20185;-88
2023/11/16 01:39:38;;;;;;;9.83;3.63;;;8.90;99.90;;;;;;4954823;29;20177;-90
2023/11/16 01:42:06;;;;;;;11.33;4.20;;;8.80;99.90;;;;;;4938316;29;20203;-89
2023/11/16 01:44:32;;;;;;;13.07;4.00;;;8.70;99.90;;;;;;4938764;29;20400;-87
2023/11/16 01:46:58;;;;;;;11.07;4.23;;;8.70;99.90;;;;;;4938477;29;20191;-88
2023/11/16 01:49:24;;;;;;;7.60;3.60;;;8.60;99.90;;;;;;4941839;29;20189;-87
2023/11/16 01:51:55;;;;;;;13.00;4.20;;;8.50;99.90;;;;;;4963768;29;20189;-87
2023/11/16 01:54:22;;;;;;;11.70;4.27;;;8.50;99.90;;;;;;4950692;29;20212;-88
2023/11/16 01:56:50;;;;;;;13.03;4.17;;;8.60;99.90;;;;;;4974665;28;20256;-87
2023/11/16 01:59:19;;;;;;;11.53;4.23;;;8.60;99.90;;;;;;4940524;29;20180;-87
2023/11/16 02:01:46;;;;;;;14.03;4.87;;;8.60;99.90;;;;;;4941676;29;20188;-88
2023/11/16 02:04:14;;;;;;;11.23;4.10;;;8.60;99.90;;;;;;4941812;29;20196;-87
2023/11/16 02:06:40;;;;;;;10.43;3.77;;;8.60;99.90;;;;;;4955243;28;20537;-87
2023/11/16 02:09:06;;;;;;;12.93;4.17;;;8.70;99.90;;;;;;4993584;28;20192;-87
2023/11/16 02:11:32;;;;;;;11.33;3.53;;;8.70;99.90;;;;;;4961252;28;20192;-88
2023/11/16 02:13:58;;;;;;;9.00;3.70;;;8.70;99.90;;;;;;4960207;28;20219;-88
2023/11/16 02:16:24;;;;;;;12.93;4.07;;;8.80;99.90;;;;;;4960348;28;20196;-88
2023/11/16 02:18:50;;;;;;;8.43;3.93;;;8.80;99.90;;;;;;4960905;28;20271;-86
2023/11/16 02:21:15;;;;;;;11.93;4.57;;;8.70;99.90;;;;;;4960293;28;20179;-86
2023/11/16 02:23:43;;;;;;;8.80;3.57;;;8.80;99.90;;;;;;4960211;28;20298;-88
2023/11/16 02:26:09;;;;;;;9.90;3.87;;;8.80;99.90;;;;;;4960139;28;20222;-88
2023/11/16 02:28:36;;;;;;;12.87;3.83;;;8.90;99.90;;;;;;4960124;28;20192;-88
2023/11/16 02:31:02;;;;;;;9.80;3.53;;;8.90;99.90;;;;;;4960406;28;20203;-87
2023/11/16 02:33:28;;;;;;;11.20;4.30;;;8.90;99.90;;;;;;4960169;28;20183;-87
2023/11/16 02:35:54;;;;;;;10.33;3.30;;;9.00;99.90;;;;;;4960270;28;20191;-87
2023/11/16 02:38:20;;;;;;;10.30;4.30;;;8.90;99.90;;;;;;4959413;28;20185;-87
2023/11/16 02:40:51;;;;;;;11.73;4.00;;;9.10;99.90;;;;;;4932088;29;20197;-86
2023/11/16 02:43:21;;;;;;;12.93;3.87;;;9.10;99.90;;;;;;4926387;29;20181;-87
2023/11/16 02:45:48;;;;;;;10.70;3.50;;;9.10;99.90;;;;;;4923014;29;20226;-87
2023/11/16 02:48:15;;;;;;;14.77;4.03;;;9.30;99.90;;;;;;4922242;29;20232;-87
2023/11/16 02:50:41;;;;;;;11.83;4.07;;;9.30;99.90;;;;;;4920772;29;20280;-87
2023/11/16 02:53:08;;;;;;;9.10;3.50;;;9.20;99.90;;;;;;4921639;29;20247;-90
2023/11/16 02:55:35;;;;;;;10.07;3.40;;;9.20;99.90;;;;;;4921329;29;20227;-88
2023/11/16 02:58:00;;;;;;;16.03;4.23;;;9.00;99.90;;;;;;4925596;29;20185;-88
2023/11/16 03:00:26;;;;;;;11.97;3.87;;;9.00;99.90;;;;;;4940592;29;20180;-88
2023/11/16 03:02:52;;;;;;;11.33;3.97;;;9.00;99.90;;;;;;4957946;29;20185;-88
2023/11/16 03:05:21;;;;;;;10.53;3.80;;;9.00;99.90;;;;;;4941056;29;20188;-87
2023/11/16 03:07:48;;;;;;;10.87;3.70;;;9.00;99.90;;;;;;4940340;29;20271;-87
2023/11/16 03:10:14;;;;;;;11.13;3.80;;;9.00;99.90;;;;;;4940744;29;20269;-88
2023/11/16 03:12:40;;;;;;;9.13;3.63;;;9.10;99.90;;;;;;4940716;29;20212;-88
2023/11/16 03:15:07;;;;;;;15.03;4.00;;;8.90;99.90;;;;;;4956970;29;20212;-89
2023/11/16 03:17:33;;;;;;;11.57;3.53;;;8.80;99.90;;;;;;4947491;29;20818;-88
2023/11/16 03:19:59;;;;;;;9.30;3.87;;;8.80;99.90;;;;;;4957772;29;20191;-89
2023/11/16 03:22:25;;;;;;;10.90;4.17;;;8.80;99.90;;;;;;4957496;29;20208;-88
2023/11/16 03:24:52;;;;;;;10.73;4.10;;;8.90;99.90;;;;;;4954153;29;20274;-89
2023/11/16 03:27:18;;;;;;;12.03;4.53;;;9.00;99.90;;;;;;4952480;29;20216;-88
2023/11/16 03:29:44;;;;;;;11.57;4.17;;;9.10;99.90;;;;;;4960120;29;20184;-89
2023/11/16 03:32:10;;;;;;;12.13;5.33;;;9.00;99.90;;;;;;4988068;28;20204;-89
2023/11/16 03:34:36;;;;;;;10.20;4.67;;;8.90;99.90;;;;;;4958420;28;20216;-89
2023/11/16 03:37:03;;;;;;;13.97;4.73;;;8.90;99.90;;;;;;4993317;28;20176;-89
2023/11/16 03:39:30;;;;;;;13.47;5.63;;;8.80;99.90;;;;;;4991237;28;20192;-87
2023/11/16 03:42:01;;;;;;;10.70;4.30;;;8.80;99.90;;;;;;4991221;28;20180;-89
2023/11/16 03:44:27;;;;;;;11.37;4.20;;;8.70;99.90;;;;;;4991118;28;20238;-89
2023/11/16 03:46:56;;;;;;;9.50;4.53;;;8.70;99.90;;;;;;4991628;28;20575;-89
2023/11/16 03:49:22;;;;;;;15.27;4.77;;;8.70;99.90;;;;;;4995280;28;20309;-87
2023/11/16 03:51:51;;;;;;;12.13;5.20;;;8.60;99.90;;;;;;5013333;28;20179;-89
2023/11/16 03:54:17;;;;;;;9.50;4.97;;;8.70;99.90;;;;;;4991109;28;20208;-89
2023/11/16 03:56:49;;;;;;;12.30;4.50;;;8.80;99.90;;;;;;4991173;28;20184;-88
2023/11/16 03:59:18;;;;;;;10.20;4.07;;;8.90;99.90;;;;;;4990830;28;20250;-88
2023/11/16 04:01:45;;;;;;;13.20;4.20;;;8.80;99.90;;;;;;4994067;28;20194;-88
2023/11/16 04:04:11;;;;;;;10.10;4.57;;;8.70;99.90;;;;;;4992518;28;20187;-89
2023/11/16 04:06:39;;;;;;;8.00;4.13;;;8.70;99.90;;;;;;4975868;28;20187;-88
2023/11/16 04:09:07;;;;;;;15.43;4.67;;;8.70;99.90;;;;;;4990767;28;20192;-89
2023/11/16 04:11:33;;;;;;;14.10;4.70;;;8.60;99.90;;;;;;4990186;28;20183;-88
2023/11/16 04:13:59;;;;;;;11.77;4.77;;;8.60;99.90;;;;;;4991084;28;20216;-88
2023/11/16 04:16:25;;;;;;;11.07;4.73;;;8.60;99.90;;;;;;4990524;28;20231;-88
2023/11/16 04:18:52;;;;;;;16.07;5.40;;;8.60;99.90;;;;;;4990211;28;20183;-88
2023/11/16 04:21:24;;;;;;;10.60;4.13;;;8.70;99.90;;;;;;4989764;28;20643;-88
2023/11/16 04:23:52;;;;;;;12.27;4.63;;;8.70;99.90;;;;;;4958224;28;20346;-88
2023/11/16 04:26:23;;;;;;;11.80;4.53;;;8.70;99.90;;;;;;4990867;28;20279;-88
2023/11/16 04:28:49;;;;;;;16.93;5.40;;;8.70;99.90;;;;;;4969650;28;20192;-90
2023/11/16 04:31:15;;;;;;;10.63;4.97;;;8.80;99.90;;;;;;4938674;29;20612;-88
2023/11/16 04:33:41;;;;;;;9.10;4.53;;;8.80;99.90;;;;;;4938672;29;20224;-88
2023/11/16 04:36:08;;;;;;;10.50;3.97;;;9.00;99.90;;;;;;4938556;29;20655;-87
2023/11/16 04:38:37;;;;;;;15.53;5.40;;;8.80;99.90;;;;;;4938066;29;20184;-87
2023/11/16 04:41:06;;;;;;;11.33;4.17;;;8.80;99.90;;;;;;4938988;29;20546;-87
2023/11/16 04:43:33;;;;;;;10.23;4.37;;;8.80;99.90;;;;;;4938343;29;20192;-88
2023/11/16 04:46:00;;;;;;;15.77;4.90;;;8.90;99.90;;;;;;4938877;29;20252;-88
2023/11/16 04:48:27;;;;;;;9.80;4.33;;;8.90;99.90;;;;;;4940067;29;20636;-88
2023/11/16 04:50:53;;;;;;;10.73;4.30;;;8.80;99.90;;;;;;4939561;29;20644;-87
2023/11/16 04:53:19;;;;;;;10.50;4.23;;;8.80;99.90;;;;;;4955638;29;20511;-89
2023/11/16 04:55:45;;;;;;;15.63;4.53;;;8.70;99.90;;;;;;4939342;29;20212;-88
2023/11/16 04:58:12;;;;;;;12.10;3.97;;;8.60;99.90;;;;;;4938691;29;20173;-88
2023/11/16 05:00:38;;;;;;;12.53;4.83;;;8.70;99.90;;;;;;4957583;28;20184;-87
2023/11/16 05:03:03;;;;;;;11.37;4.33;;;8.60;99.90;;;;;;4989247;28;20662;-87
2023/11/16 05:05:29;;;;;;;15.33;4.53;;;8.70;99.90;;;;;;4989793;28;20588;-86
2023/11/16 05:07:55;;;;;;;14.10;4.33;;;8.60;99.90;;;;;;4990369;28;20184;-87
2023/11/16 05:10:20;;;;;;;11.73;4.03;;;8.70;99.90;;;;;;4990256;28;20180;-87
2023/11/16 05:12:48;;;;;;;12.50;4.40;;;8.60;99.90;;;;;;4990290;28;20187;-87
2023/11/16 05:15:16;;;;;;;13.83;4.97;;;8.70;99.90;;;;;;4990612;28;20219;-87
2023/11/16 05:17:41;;;;;;;12.03;4.13;;;8.70;99.90;;;;;;4990530;28;20289;-87
2023/11/16 05:20:08;;;;;;;16.40;5.00;;;8.60;99.90;;;;;;4990107;28;20219;-86
2023/11/16 05:22:33;;;;;;;14.90;4.10;;;8.60;99.90;;;;;;4992422;28;20281;-90
2023/11/16 05:24:59;;;;;;;12.30;4.43;;;8.60;99.90;;;;;;4982823;28;20704;-88
2023/11/16 05:27:27;;;;;;;14.70;4.40;;;8.70;99.90;;;;;;4949340;29;20557;-89
2023/11/16 05:29:53;;;;;;;12.53;5.20;;;8.70;99.90;;;;;;4955086;28;20199;-89
2023/11/16 05:32:20;;;;;;;14.97;5.20;;;8.80;99.90;;;;;;4963954;28;20187;-88
2023/11/16 05:34:47;;;;;;;15.23;4.57;;;8.80;99.90;;;;;;4961536;28;20576;-88
2023/11/16 05:37:14;;;;;;;14.00;4.50;;;8.70;99.90;;;;;;4961184;28;20176;-89
2023/11/16 05:39:40;;;;;;;12.67;4.47;;;8.80;99.90;;;;;;4962137;28;20274;-89
2023/11/16 05:42:08;;;;;;;13.70;4.70;;;8.80;99.90;;;;;;4962536;28;20688;-88
2023/11/16 05:44:33;;;;;;;12.07;4.67;;;8.90;99.90;;;;;;4961544;28;20243;-86
2023/11/16 05:47:03;;;;;;;13.33;4.80;;;8.90;99.90;;;;;;4965897;28;20187;-87
2023/11/16 05:49:28;;;;;;;12.03;4.50;;;8.90;99.90;;;;;;4972821;28;20184;-86
2023/11/16 05:51:55;;;;;;;12.33;4.70;;;9.10;99.90;;;;;;4967179;28;20207;-87
2023/11/16 05:54:21;;;;;;;17.27;4.30;;;9.10;99.90;;;;;;4973744;28;20285;-88
2023/11/16 05:56:48;;;;;;;16.20;4.43;;;8.90;99.90;;;;;;4966993;28;20722;-88
2023/11/16 05:59:14;;;;;;;17.63;5.33;;;8.90;99.90;;;;;;4961667;29;20275;-90
2023/11/16 06:01:44;;;;;;;10.00;4.40;;;8.90;99.90;;;;;;4943477;29;20704;-90
2023/11/16 06:04:11;;;;;;;14.60;4.07;;;9.00;99.90;;;;;;4941357;28;20192;-90
2023/11/16 06:06:36;;;;;;;13.73;4.73;;;9.20;99.90;;;;;;4942816;29;20173;-89
2023/11/16 06:09:03;;;;;;;12.03;4.47;;;9.10;99.90;;;;;;4942257;29;20304;-86
2023/11/16 06:11:30;;;;;;;15.30;4.47;;;9.10;99.90;;;;;;4941121;29;20272;-88
2023/11/16 06:13:56;;;;;;;15.07;5.23;;;9.10;99.90;;;;;;4941300;29;20212;-88
2023/11/16 06:16:22;;;;;;;14.80;4.80;;;9.10;99.90;;;;;;4940480;29;20271;-90
2023/11/16 06:18:49;;;;;;;14.57;5.00;;;9.20;99.90;;;;;;4945708;29;20273;-88
2023/11/16 06:21:16;;;;;;;18.03;5.20;;;9.50;99.90;;;;;;4931661;29;20201;-87
2023/11/16 06:23:43;;;;;;;16.27;5.03;;;9.30;99.90;;;;;;4948254;29;20204;-90
2023/11/16 06:26:09;;;;;;;13.43;4.53;;;9.40;99.90;;;;;;4966533;28;20562;-90
2023/11/16 06:28:35;;;;;;;16.87;5.43;;;9.30;99.90;;;;;;5004665;28;20215;-89
2023/11/16 06:31:01;;;;;;;16.00;4.73;;;9.40;99.90;;;;;;4997622;28;20227;-89
2023/11/16 06:33:27;;;;;;;16.37;4.90;;;9.40;99.90;;;;;;4999095;28;20660;-89
2023/11/16 06:35:53;;;;;;;15.50;5.37;;;9.40;99.90;;;;;;4990408;28;20657;-89
2023/11/16 06:38:19;;;;;;;19.23;6.27;;;9.20;99.90;;;;;;4950969;29;20188;-91
2023/11/16 06:40:45;;;;;;;12.07;5.23;;;9.10;99.90;;;;;;4942978;29;20196;-89
2023/11/16 06:43:12;;;;;;;16.47;5.90;;;9.10;99.90;;;;;;4942188;29;20182;-89
2023/11/16 06:45:43;;;;;;;16.07;5.60;;;9.10;99.90;;;;;;4943419;29;20192;-91
2023/11/16 06:48:10;;;;;;;16.00;5.90;;;9.20;99.90;;;;;;4950255;29;20193;-88
2023/11/16 06:50:38;;;;;;;17.30;5.73;;;9.20;99.90;;;;;;4945405;29;20188;-87
2023/11/16 06:53:06;;;;;;;14.67;5.43;;;9.30;99.90;;;;;;4944459;29;20189;-90
2023/11/16 06:55:35;;;;;;;13.70;5.83;;;9.20;99.90;;;;;;4940994;29;20224;-92
2023/11/16 06:58:06;;;;;;;20.37;6.13;;;9.20;99.90;;;;;;4941389;29;20188;-90
2023/11/16 07:00:32;;;;;;;16.47;5.87;;;9.20;99.90;;;;;;4943216;29;20386;-89
2023/11/16 07:02:58;;;;;;;16.87;6.53;;;9.30;99.90;;;;;;4947449;29;20188;-87
2023/11/16 07:05:24;;;;;;;20.10;6.73;;;9.50;99.90;;;;;;4941842;29;20180;-89
2023/11/16 07:07:50;;;;;;;14.93;5.80;;;9.40;99.90;;;;;;4941140;29;20656;-89
2023/11/16 07:10:16;;;;;;;22.10;5.70;;;9.50;99.90;;;;;;4941641;29;20195;-90
2023/11/16 07:12:42;;;;;;;18.00;6.27;;;9.60;99.90;;;;;;4944169;29;20184;-91
2023/11/16 07:15:12;;;;;;;13.53;6.47;;;9.60;99.90;;;;;;4940222;29;20292;-91
2023/11/16 07:17:39;;;;;;;17.20;6.77;;;9.60;99.90;;;;;;4942715;29;20200;-89
2023/11/16 07:20:11;;;;;;;17.20;6.83;;;9.70;99.90;;;;;;4943374;29;20291;-94
2023/11/16 07:22:37;;;;;;;14.60;5.77;;;9.60;99.90;;;;;;4942022;29;20216;-90
2023/11/16 07:25:06;;;;;;;16.13;4.90;;;9.80;99.90;;;;;;4940867;29;20202;-91
2023/11/16 07:27:32;;;;;;;16.03;5.23;;;9.50;99.90;;;;;;4955182;29;20354;-89
2023/11/16 07:30:03;;;;;;;14.67;5.77;;;9.60;99.90;;;;;;4955910;29;20176;-89
2023/11/16 07:33:00;;;;;;;17.10;5.80;;;9.70;99.90;;;;;;4978203;28;20188;-95
2023/11/16 07:35:47;;;;;;;14.40;4.97;;;9.70;99.90;;;;;;4976509;28;20228;-88
2023/11/16 07:38:14;;;;;;;17.53;5.30;;;9.50;99.90;;;;;;4980304;28;20184;-89
2023/11/16 07:40:39;;;;;;;12.77;4.70;;;9.40;99.90;;;;;;4958370;28;20188;-92
2023/11/16 07:43:06;;;;;;;11.30;5.03;;;9.80;99.90;;;;;;4964797;28;20220;-91
2023/11/16 07:45:31;;;;;;;11.43;4.80;;;9.70;99.90;;;;;;4982843;28;20186;-91
2023/11/16 07:47:59;;;;;;;10.23;4.53;;;9.70;99.90;;;;;;5001296;28;20200;-89
2023/11/16 07:50:26;;;;;;;13.23;4.80;;;9.70;99.90;;;;;;5006666;28;20188;-90
2023/11/16 07:52:55;;;;;;;13.60;4.60;;;9.80;99.90;;;;;;4994307;28;20264;-90
2023/11/16 07:55:24;;;;;;;11.10;4.90;;;9.70;99.90;;;;;;4994170;28;20249;-89
2023/11/16 07:57:55;;;;;;;13.07;4.87;;;9.60;99.90;;;;;;4959711;28;20236;-91
2023/11/16 08:00:30;;;;;;;13.83;4.43;;;9.80;99.90;;;;;;4965617;28;20529;-90
2023/11/16 08:05:43;;;;;;;9.50;5.07;;;10.10;99.90;;;;;;4988733;28;20211;-91
2023/11/16 08:08:14;;;;;;;15.33;5.00;;;9.90;99.90;;;;;;4974159;28;20222;-91
2023/11/16 08:10:49;;;;;;;12.77;4.70;;;10.00;99.90;;;;;;4996918;28;20180;-90
2023/11/16 08:13:17;;;;;;;11.83;5.23;;;10.00;99.90;;;;;;5002532;28;20202;-92
2023/11/16 08:15:52;;;;;;;11.23;4.80;;;10.00;99.90;;;;;;4994114;28;20232;-92
2023/11/16 08:18:21;;;;;;;12.73;5.03;;;10.00;99.90;;;;;;4961599;28;20190;-91
2023/11/16 08:20:47;;;;;;;8.60;5.00;;;9.90;99.90;;;;;;4998153;28;20188;-90
2023/11/16 08:23:13;;;;;;;12.23;5.17;;;10.00;99.90;;;;;;5000470;28;20290;-90
2023/11/16 08:25:39;;;;;;;14.87;5.43;;;9.90;99.90;;;;;;4961872;28;20294;-92
2023/11/16 08:28:08;;;;;;;15.57;5.13;;;9.80;99.90;;;;;;4997840;28;20188;-93
2023/11/16 08:30:34;;;;;;;16.93;5.00;;;9.80;99.90;;;;;;5003557;28;20180;-90
2023/11/16 08:33:00;;;;;;;14.83;5.93;;;9.90;99.90;;;;;;4999453;28;20645;-92
2023/11/16 08:35:26;;;;;;;14.13;5.70;;;9.90;99.90;;;;;;4994734;28;20219;-91
2023/11/16 08:37:54;;;;;;;16.90;5.93;;;10.00;99.90;;;;;;4993410;28;20191;-92
2023/11/16 08:40:20;;;;;;;11.33;5.87;;;9.90;99.90;;;;;;4991912;28;20244;-92
2023/11/16 08:42:47;;;;;;;13.00;5.40;;;10.10;99.90;;;;;;4992134;28;20180;-94
2023/11/16 08:45:20;;;;;;;16.70;6.00;;;10.20;99.90;;;;;;4991415;28;20676;-93
2023/11/16 08:47:48;;;;;;;18.63;5.70;;;9.90;99.90;;;;;;4992091;28;20189;-92
2023/11/16 08:50:16;;;;;;;12.13;5.03;;;9.90;99.90;;;;;;4991327;28;20189;-92
2023/11/16 08:52:45;;;;;;;13.47;5.47;;;9.80;99.90;;;;;;4959737;28;20186;-92
2023/11/16 08:55:12;;;;;;;13.20;5.73;;;9.80;99.90;;;;;;4959020;28;20213;-92
2023/11/16 08:57:46;;;;;;;14.40;6.07;;;10.00;99.90;;;;;;4958517;28;20180;-91
2023/11/16 09:00:27;;;;;;;18.43;6.27;;;10.10;99.90;;;;;;4991475;28;20736;-91
2023/11/16 09:02:57;;;;;;;14.80;6.00;;;10.20;99.90;;;;;;4991462;28;20191;-91
2023/11/16 09:05:24;;;;;;;13.43;5.60;;;10.40;99.90;;;;;;4960010;28;20218;-90
2023/11/16 09:07:53;;;;;;;14.00;5.47;;;10.40;99.90;;;;;;4997206;28;20613;-91
2023/11/16 09:10:21;;;;;;;14.80;5.60;;;10.30;99.90;;;;;;4991680;28;20193;-91
2023/11/16 09:12:48;;;;;;;18.70;6.17;;;10.30;99.90;;;;;;4991932;28;20188;-92
2023/11/16 09:15:17;;;;;;;13.90;5.70;;;10.20;99.90;;;;;;4959108;28;20259;-91
2023/11/16 09:17:46;;;;;;;11.00;5.33;;;10.10;99.90;;;;;;4991541;28;20212;-91
2023/11/16 09:20:13;;;;;;;14.30;6.47;;;10.00;99.90;;;;;;4990926;28;20263;-93
2023/11/16 09:22:40;;;;;;;12.27;6.07;;;9.90;99.90;;;;;;4958592;28;20200;-90
2023/11/16 09:25:07;;;;;;;11.57;6.40;;;9.80;99.90;;;;;;4990896;28;20677;-92
2023/11/16 09:27:38;;;;;;;15.97;7.70;;;9.80;99.90;;;;;;4993151;28;20192;-90
2023/11/16 09:30:05;;;;;;;15.77;7.00;;;10.20;99.90;;;;;;4990984;28;20239;-92
2023/11/16 09:32:32;;;;;;;14.57;7.03;;;10.20;99.90;;;;;;4991523;28;20247;-90
2023/11/16 09:35:03;;;;;;;12.07;6.83;;;10.30;99.90;;;;;;4993396;28;20570;-92
2023/11/16 09:37:30;;;;;;;15.40;6.43;;;10.40;99.90;;;;;;5005760;28;20177;-91
2023/11/16 09:40:04;;;;;;;14.40;7.17;;;10.30;99.90;;;;;;5002046;28;20243;-91
2023/11/16 09:42:31;;;;;;;18.60;7.60;;;10.40;99.90;;;;;;4974636;28;20180;-90
2023/11/16 09:45:00;;;;;;;12.10;6.63;;;10.20;99.90;;;;;;5009809;28;20251;-89
2023/11/16 09:47:30;;;;;;;10.47;6.70;;;10.20;99.90;;;;;;5013217;28;20207;-90
2023/11/16 09:49:56;;;;;;;12.83;6.33;;;10.10;99.90;;;;;;4959523;28;20199;-88
2023/11/16 09:52:29;;;;;;;11.43;6.70;;;10.10;99.90;;;;;;4995538;28;20214;-91
2023/11/16 09:55:00;;;;;;;10.73;6.40;;;10.30;99.90;;;;;;4991879;28;20231;-93
2023/11/16 09:57:31;;;;;;;14.53;7.00;;;10.30;99.90;;;;;;4991562;28;20176;-90
2023/11/16 10:00:00;;;;;;;15.67;6.60;;;10.30;99.90;;;;;;4997490;28;20189;-90
2023/11/16 10:02:26;;;;;;;12.17;6.73;;;10.30;99.90;;;;;;4991367;28;20267;-92
2023/11/16 10:04:54;;;;;;;14.03;7.00;;;10.30;99.90;;;;;;4976610;28;20206;-90
2023/11/16 10:07:26;;;;;;;12.80;6.60;;;10.30;99.90;;;;;;4992294;28;20251;-91
2023/11/16 10:09:57;;;;;;;13.57;6.47;;;10.40;99.90;;;;;;4971879;28;20184;-92
2023/11/16 10:12:23;;;;;;;13.17;6.97;;;10.40;99.90;;;;;;4996144;28;20204;-91
2023/11/16 10:14:52;;;;;;;14.33;7.20;;;10.40;99.90;;;;;;4962104;28;20634;-92
2023/11/16 10:17:25;;;;;;;9.93;6.23;;;10.40;99.90;;;;;;4994337;28;20202;-92
2023/11/16 10:19:53;;;;;;;14.47;7.03;;;10.70;99.90;;;;;;4997408;28;20644;-92
2023/11/16 10:22:19;;;;;;;12.87;6.40;;;10.70;99.90;;;;;;4996661;28;20187;-91
2023/11/16 10:24:44;;;;;;;16.63;8.00;;;10.70;99.90;;;;;;5007338;28;20186;-92
2023/11/16 10:27:11;;;;;;;13.00;7.20;;;10.80;99.90;;;;;;5001714;28;20694;-92
2023/11/16 10:29:41;;;;;;;13.63;6.07;;;10.60;99.90;;;;;;4980136;28;20254;-90
2023/11/16 10:32:12;;;;;;;15.60;6.30;;;10.40;99.90;;;;;;5002146;28;20192;-91
2023/11/16 10:34:39;;;;;;;14.53;6.80;;;10.50;99.90;;;;;;4964815;28;20211;-92
2023/11/16 10:37:05;;;;;;;12.60;6.10;;;10.50;99.90;;;;;;4962505;28;20180;-92
2023/11/16 10:39:31;;;;;;;16.40;6.53;;;10.60;99.90;;;;;;4995605;28;20187;-91
2023/11/16 10:42:00;;;;;;;13.07;7.03;;;10.50;99.90;;;;;;4981073;28;20258;-89
2023/11/16 10:44:29;;;;;;;13.20;6.77;;;10.50;99.90;;;;;;4963199;28;20267;-92
2023/11/16 10:46:56;;;;;;;15.57;6.43;;;10.40;99.90;;;;;;4995069;28;20716;-92
2023/11/16 10:49:22;;;;;;;11.20;5.90;;;10.50;99.90;;;;;;4998973;28;20264;-91
2023/11/16 10:51:53;;;;;;;12.70;6.57;;;10.40;99.90;;;;;;5001852;28;20678;-90
2023/11/16 10:54:22;;;;;;;12.50;6.80;;;10.60;99.90;;;;;;4995999;28;20217;-90
2023/11/16 10:56:52;;;;;;;10.47;7.03;;;10.40;99.90;;;;;;4998849;28;20188;-91
2023/11/16 10:59:21;;;;;;;12.80;6.90;;;10.40;99.90;;;;;;4990347;28;20205;-90
2023/11/16 11:01:47;;;;;;;13.27;6.57;;;10.40;99.90;;;;;;4966916;28;20180;-90
2023/11/16 11:04:14;;;;;;;14.87;6.37;;;10.40;99.90;;;;;;4997138;28;20660;-91
2023/11/16 11:06:44;;;;;;;11.97;6.47;;;10.50;99.90;;;;;;5001912;28;20216;-89
2023/11/16 11:09:15;;;;;;;14.90;6.73;;;10.40;99.90;;;;;;4957762;28;20193;-90
2023/11/16 11:11:44;;;;;;;15.07;6.87;;;10.30;99.90;;;;;;4942832;29;20191;-87
2023/11/16 11:14:13;;;;;;;14.03;6.57;;;10.50;99.90;;;;;;4927314;29;20226;-89
2023/11/16 11:16:39;;;;;;;13.50;7.43;;;10.30;99.90;;;;;;4928072;29;20236;-90
2023/11/16 11:19:07;;;;;;;11.07;6.60;;;10.50;99.90;;;;;;4944628;29;20180;-90
2023/11/16 11:21:33;;;;;;;14.00;8.27;;;10.70;99.90;;;;;;4926803;29;20211;-88
2023/11/16 11:24:06;;;;;;;15.00;7.97;;;10.60;99.90;;;;;;4945493;29;20233;-89
2023/11/16 11:26:48;;;;;;;12.80;7.53;;;10.60;99.90;;;;;;4928985;29;20219;-90
2023/11/16 11:29:25;;;;;;;13.80;7.33;;;10.80;99.90;;;;;;4944534;29;20195;-91
2023/11/16 11:31:55;;;;;;;16.00;8.30;;;10.70;99.90;;;;;;4926219;29;20248;-88
2023/11/16 11:34:30;;;;;;;14.17;7.47;;;10.90;99.90;;;;;;4928939;29;20197;-88
2023/11/16 11:36:57;;;;;;;13.90;7.63;;;10.90;99.90;;;;;;4931116;29;20191;-90
2023/11/16 11:39:26;;;;;;;16.13;9.03;;;11.10;99.90;;;;;;4934874;29;20184;-91
2023/11/16 11:41:59;;;;;;;13.63;9.30;;;10.90;99.90;;;;;;4953200;29;20235;-90
2023/11/16 11:44:26;;;;;;;12.90;7.87;;;10.90;99.90;;;;;;4956010;28;20172;-88
2023/11/16 11:46:55;;;;;;;16.97;8.67;;;10.90;99.90;;;;;;4955747;28;20199;-90
2023/11/16 11:49:25;;;;;;;14.13;8.30;;;10.90;99.90;;;;;;4952467;28;20656;-90
2023/11/16 11:51:59;;;;;;;14.13;8.50;;;11.00;99.90;;;;;;4964915;29;20190;-89
2023/11/16 11:54:36;;;;;;;13.37;8.90;;;11.00;99.90;;;;;;4934394;29;20262;-90
2023/11/16 11:57:05;;;;;;;14.00;8.60;;;11.00;99.90;;;;;;4959771;29;20180;-89
2023/11/16 11:59:31;;;;;;;12.90;7.77;;;11.00;99.90;;;;;;4924339;29;20568;-90
2023/11/16 12:02:07;;;;;;;11.27;7.63;;;11.10;99.90;;;;;;4940168;29;20171;-91
2023/11/16 12:04:35;;;;;;;14.30;7.63;;;11.10;99.90;;;;;;4923287;29;20193;-92
2023/11/16 12:07:09;;;;;;;16.00;7.93;;;11.10;99.90;;;;;;4955876;29;20203;-90
2023/11/16 12:09:40;;;;;;;12.07;8.07;;;11.10;99.90;;;;;;4922918;29;20238;-91
2023/11/16 12:12:07;;;;;;;13.40;7.17;;;11.20;99.90;;;;;;4921820;29;20220;-90
2023/11/16 12:14:46;;;;;;;11.30;7.10;;;11.30;99.90;;;;;;4938284;29;20313;-89
2023/11/16 12:17:15;;;;;;;13.40;6.87;;;11.20;99.90;;;;;;4938626;29;20294;-92
2023/11/16 12:19:42;;;;;;;10.83;6.77;;;10.90;99.90;;;;;;4940462;29;20646;-89
2023/11/16 12:22:10;;;;;;;10.83;6.57;;;10.60;99.90;;;;;;4932066;29;20645;-92
2023/11/16 12:24:37;;;;;;;10.27;6.50;;;10.40;99.90;;;;;;4925045;29;20211;-89
2023/11/16 12:27:04;;;;;;;10.50;5.90;;;10.50;99.90;;;;;;4922997;29;20191;-91
2023/11/16 12:29:30;;;;;;;12.07;6.00;;;10.40;99.90;;;;;;4939443;29;20194;-89
2023/11/16 12:31:56;;;;;;;12.67;6.40;;;10.50;99.90;;;;;;4939570;29;20187;-90
2023/11/16 12:34:26;;;;;;;10.00;6.83;;;10.60;99.90;;;;;;4937680;29;20582;-90
2023/11/16 12:36:58;;;;;;;12.10;6.33;;;10.70;99.90;;;;;;4926767;29;20184;-90
2023/11/16 12:39:28;;;;;;;12.20;6.80;;;10.60;99.90;;;;;;4939962;29;20545;-90
2023/11/16 12:41:55;;;;;;;11.80;6.50;;;10.50;99.90;;;;;;4926142;29;20232;-91
2023/11/16 12:44:22;;;;;;;10.90;6.53;;;10.50;99.90;;;;;;4924901;29;20186;-91
2023/11/16 12:46:49;;;;;;;10.33;6.33;;;10.50;99.90;;;;;;4923791;29;20200;-90
2023/11/16 12:49:15;;;;;;;9.57;5.40;;;10.40;99.90;;;;;;4922766;29;20360;-90
2023/11/16 12:51:41;;;;;;;6.93;5.10;;;10.30;99.90;;;;;;4937811;29;20186;-90